Time;durP1;ratioP1;P1;durP2;ratioP2;P2;SDS_P1;SDS_P2;PMS_P1;PMS_P2;Temp;Humidity;BMP_temperature;BMP_pressure;BME280_temperature;BME280_humidity;BME280_pressure;Samples;Min_cycle;Max_cycle;Signal;HPM_P1;HPM_P2
2021/12/15 06:45:17;;;;;;;6.68;5.00;;;;;;;;;;6157327;23;20033;-81
2021/12/15 06:58:39;;;;;;;12.70;6.10;;;;;;;;;;6158138;23;20080;-81
2021/12/15 07:01:05;;;;;;;8.57;5.65;;;;;;;;;;6158096;23;20005;-80
2021/12/15 10:46:23;;;;;;;10.33;9.20;;;;;;;;;;6243815;23;20316;-81
2021/12/15 10:49:12;;;;;;;11.25;9.05;;;;;;;;;;6246330;23;20012;-82
2021/12/15 10:51:48;;;;;;;14.17;9.10;;;;;;;;;;6219543;23;20050;-82
2021/12/15 10:54:23;;;;;;;10.77;8.75;;;;;;;;;;6246152;23;20309;-81
2021/12/15 10:56:56;;;;;;;9.48;8.27;;;;;;;;;;6219474;23;20012;-83
2021/12/15 10:59:25;;;;;;;10.35;9.35;;;;;;;;;;6246127;23;20047;-83
2021/12/15 11:02:00;;;;;;;9.95;8.68;;;;;;;;;;6248550;23;20000;-82
2021/12/15 11:04:36;;;;;;;9.20;8.18;;;;;;;;;;6247934;23;20049;-82
2021/12/15 11:07:16;;;;;;;9.68;8.35;;;;;;;;;;6248236;23;20058;-81
2021/12/15 11:09:47;;;;;;;8.77;7.07;;;;;;;;;;6221106;23;20301;-82
2021/12/15 11:12:19;;;;;;;8.35;7.55;;;;;;;;;;6248084;23;20369;-82
2021/12/15 11:14:53;;;;;;;9.43;8.27;;;;;;;;;;6248260;23;20323;-80
2021/12/15 11:17:25;;;;;;;11.45;7.93;;;;;;;;;;6247800;23;20085;-82
2021/12/15 11:19:56;;;;;;;8.82;7.93;;;;;;;;;;6221180;23;20005;-82
2021/12/15 11:22:30;;;;;;;8.68;7.78;;;;;;;;;;6247688;23;20000;-84
2021/12/15 11:24:56;;;;;;;10.40;8.10;;;;;;;;;;6247963;23;20415;-84
2021/12/15 11:27:22;;;;;;;10.23;8.18;;;;;;;;;;6248021;23;20008;-82
2021/12/15 11:29:47;;;;;;;8.45;7.55;;;;;;;;;;6247916;23;20000;-83
2021/12/15 11:32:42;;;;;;;9.88;7.30;;;;;;;;;;6247852;23;20323;-83
2021/12/15 11:35:10;;;;;;;7.82;6.97;;;;;;;;;;6247580;23;20000;-80
2021/12/15 11:37:51;;;;;;;8.73;7.47;;;;;;;;;;6247621;23;20075;-82
2021/12/15 11:40:40;;;;;;;6.18;5.57;;;;;;;;;;6247717;23;20005;-81
2021/12/15 11:43:07;;;;;;;7.35;6.03;;;;;;;;;;6220622;23;20000;-82
2021/12/15 11:45:39;;;;;;;7.20;6.35;;;;;;;;;;6248007;23;20001;-81
2021/12/15 11:48:17;;;;;;;7.30;6.60;;;;;;;;;;6247464;23;20008;-81
2021/12/15 11:50:43;;;;;;;12.93;9.15;;;;;;;;;;6247686;23;20005;-83
2021/12/15 11:53:21;;;;;;;7.57;6.50;;;;;;;;;;6247192;23;20309;-84
2021/12/15 11:55:49;;;;;;;9.45;6.88;;;;;;;;;;6247816;23;20018;-86
2021/12/15 11:58:14;;;;;;;7.38;6.10;;;;;;;;;;6220497;23;20008;-87
2021/12/15 12:00:40;;;;;;;5.95;5.35;;;;;;;;;;6247688;23;20031;-82
2021/12/15 12:03:05;;;;;;;8.75;6.72;;;;;;;;;;6247482;23;20007;-81
2021/12/15 12:05:36;;;;;;;8.23;6.10;;;;;;;;;;6247598;23;20000;-82
2021/12/15 12:08:09;;;;;;;8.43;6.05;;;;;;;;;;6247533;23;20011;-82
2021/12/15 12:10:45;;;;;;;7.47;6.78;;;;;;;;;;6247485;23;20004;-81
2021/12/15 12:13:38;;;;;;;10.07;6.00;;;;;;;;;;6247431;23;20507;-82
2021/12/15 12:16:07;;;;;;;6.32;5.10;;;;;;;;;;6247122;23;20008;-82
2021/12/15 12:18:33;;;;;;;5.95;4.97;;;;;;;;;;6247284;23;20008;-84
2021/12/15 12:21:04;;;;;;;5.93;4.72;;;;;;;;;;6220476;23;20014;-81
2021/12/15 12:23:31;;;;;;;7.03;4.47;;;;;;;;;;6246879;23;20004;-81
2021/12/15 12:26:04;;;;;;;4.35;3.90;;;;;;;;;;6247008;23;20004;-81
2021/12/15 12:28:36;;;;;;;5.80;4.30;;;;;;;;;;6247090;23;20423;-85
2021/12/15 12:31:24;;;;;;;9.23;5.90;;;;;;;;;;6247225;23;20005;-83
2021/12/15 12:33:50;;;;;;;9.63;7.35;;;;;;;;;;6220102;23;20013;-85
2021/12/15 12:36:36;;;;;;;13.38;12.00;;;;;;;;;;6247087;23;20000;-84
2021/12/15 12:39:12;;;;;;;5.50;4.80;;;;;;;;;;6246614;23;20394;-84
2021/12/15 12:41:44;;;;;;;6.57;5.60;;;;;;;;;;6247203;23;20880;-86
2021/12/15 12:44:12;;;;;;;6.38;5.10;;;;;;;;;;6220286;23;20000;-85
2021/12/15 12:47:04;;;;;;;4.63;4.10;;;;;;;;;;6247183;23;20449;-85
2021/12/15 18:16:30;;;;;;;8.38;6.03;;;;;;;;;;6232270;22;20074;-84
2021/12/15 18:18:58;;;;;;;13.63;9.88;;;;;;;;;;6249580;23;20370;-83
2021/12/15 18:21:31;;;;;;;12.70;7.65;;;;;;;;;;6249954;23;20062;-85
2021/12/15 18:23:58;;;;;;;12.52;7.72;;;;;;;;;;6251700;23;20079;-87
2021/12/15 18:26:26;;;;;;;15.80;9.82;;;;;;;;;;6251561;23;20027;-87
2021/12/15 18:28:52;;;;;;;11.50;7.82;;;;;;;;;;6250092;23;20000;-83
2021/12/15 18:31:20;;;;;;;15.57;11.48;;;;;;;;;;6249971;23;20078;-86
2021/12/15 18:33:48;;;;;;;17.63;11.07;;;;;;;;;;6249758;23;20007;-87
2021/12/15 18:36:14;;;;;;;17.92;12.07;;;;;;;;;;6249651;23;20481;-83
2021/12/15 18:38:42;;;;;;;17.40;12.18;;;;;;;;;;6249589;23;20000;-87
2021/12/15 18:41:17;;;;;;;18.40;12.13;;;;;;;;;;6249632;23;20034;-85
2021/12/15 18:43:43;;;;;;;19.50;13.35;;;;;;;;;;6249410;23;20034;-80
2021/12/15 18:46:11;;;;;;;17.17;11.93;;;;;;;;;;6222740;23;20004;-83
2021/12/15 18:48:37;;;;;;;17.98;11.38;;;;;;;;;;6249671;23;20007;-86
2021/12/15 18:51:03;;;;;;;17.35;11.48;;;;;;;;;;6249599;23;20000;-88
2021/12/15 18:53:33;;;;;;;18.58;11.93;;;;;;;;;;6249494;23;20011;-86
2021/12/15 18:56:03;;;;;;;20.70;11.25;;;;;;;;;;6249490;23;20004;-84
2021/12/15 18:58:33;;;;;;;15.95;10.98;;;;;;;;;;6249809;23;20378;-84
2021/12/15 19:01:02;;;;;;;17.88;12.20;;;;;;;;;;6249291;23;20012;-84
2021/12/15 19:03:28;;;;;;;17.38;12.43;;;;;;;;;;6249550;23;20335;-87
2021/12/15 19:05:54;;;;;;;19.05;12.85;;;;;;;;;;6249563;23;19996;-87
2021/12/15 19:08:20;;;;;;;19.67;13.30;;;;;;;;;;6249582;23;20008;-85
2021/12/15 19:10:48;;;;;;;22.85;13.77;;;;;;;;;;6249296;23;20000;-85
2021/12/15 19:13:15;;;;;;;29.27;19.40;;;;;;;;;;6250031;23;20467;-83
2021/12/15 19:15:43;;;;;;;42.97;34.33;;;;;;;;;;6249327;23;20008;-85
2021/12/15 19:18:13;;;;;;;35.55;24.60;;;;;;;;;;6249192;23;20051;-84
2021/12/15 19:20:41;;;;;;;;;;;;;;;;;;6249107;23;20446;-84
2021/12/15 19:23:08;;;;;;;57.13;44.42;;;;;;;;;;6220910;23;20346;-89
2021/12/15 19:25:35;;;;;;;23.90;16.95;;;;;;;;;;6248357;23;20001;-87
2021/12/15 19:28:00;;;;;;;25.98;15.10;;;;;;;;;;6248620;23;20008;-81
2021/12/15 19:30:32;;;;;;;38.03;16.25;;;;;;;;;;6247860;23;20004;-84
2021/12/15 19:33:00;;;;;;;22.77;13.95;;;;;;;;;;6248133;23;20071;-90
2021/12/15 19:35:26;;;;;;;24.10;16.08;;;;;;;;;;6248016;23;20000;-90
2021/12/15 19:37:51;;;;;;;22.92;15.32;;;;;;;;;;6248359;23;20023;-89
2021/12/15 19:40:19;;;;;;;21.35;14.65;;;;;;;;;;6248075;23;20004;-88
2021/12/15 19:42:46;;;;;;;20.27;13.27;;;;;;;;;;6248282;23;20000;-89
2021/12/15 19:45:13;;;;;;;19.85;13.00;;;;;;;;;;6248224;23;19996;-89
2021/12/15 19:47:38;;;;;;;20.55;12.85;;;;;;;;;;6247916;23;20439;-88
2021/12/15 19:50:08;;;;;;;19.85;14.52;;;;;;;;;;6247876;23;20000;-89
2021/12/15 19:52:34;;;;;;;19.20;13.30;;;;;;;;;;6248186;23;20004;-93
2021/12/15 19:54:59;;;;;;;17.15;13.20;;;;;;;;;;6248869;23;20437;-91
2021/12/15 19:57:25;;;;;;;22.35;13.38;;;;;;;;;;6249645;23;20016;-91
2021/12/15 19:59:52;;;;;;;18.48;13.05;;;;;;;;;;6249889;23;20011;-91
2021/12/15 20:02:17;;;;;;;17.33;11.77;;;;;;;;;;6248332;23;20000;-92
2021/12/15 20:04:43;;;;;;;18.45;11.82;;;;;;;;;;6247548;23;20076;-90
2021/12/15 20:07:11;;;;;;;17.60;11.52;;;;;;;;;;6248096;23;20075;-89
2021/12/15 20:09:38;;;;;;;17.30;11.93;;;;;;;;;;6247742;23;20027;-86
2021/12/15 20:12:08;;;;;;;18.25;12.45;;;;;;;;;;6248035;23;20000;-90
2021/12/15 20:14:34;;;;;;;18.80;11.80;;;;;;;;;;6247785;23;20000;-87
2021/12/15 20:17:03;;;;;;;18.65;12.43;;;;;;;;;;6247782;23;20020;-88
2021/12/15 20:19:30;;;;;;;21.45;13.15;;;;;;;;;;6247662;23;20000;-91
2021/12/15 20:21:59;;;;;;;18.52;12.35;;;;;;;;;;6220986;23;20415;-89
2021/12/15 20:24:32;;;;;;;14.88;9.48;;;;;;;;;;6220848;23;20430;-88
2021/12/15 20:27:01;;;;;;;15.88;11.40;;;;;;;;;;6220953;23;20326;-89
2021/12/15 20:29:28;;;;;;;15.70;9.80;;;;;;;;;;6220969;23;20008;-89
2021/12/15 20:31:54;;;;;;;14.38;10.63;;;;;;;;;;6247309;23;20458;-86
2021/12/15 20:34:21;;;;;;;16.38;10.65;;;;;;;;;;6246695;23;20481;-88
2021/12/15 20:36:48;;;;;;;20.30;11.63;;;;;;;;;;6247389;23;20008;-88
2021/12/15 20:39:14;;;;;;;17.63;11.73;;;;;;;;;;6247384;23;20065;-89
2021/12/15 20:41:41;;;;;;;18.10;11.57;;;;;;;;;;6247586;23;20028;-88
2021/12/15 20:44:07;;;;;;;14.52;8.95;;;;;;;;;;6247278;23;20059;-83
2021/12/15 20:46:33;;;;;;;14.85;10.32;;;;;;;;;;6247550;23;20008;-89
2021/12/15 20:49:00;;;;;;;18.75;10.32;;;;;;;;;;6247611;23;20015;-86
2021/12/15 20:51:26;;;;;;;15.90;10.20;;;;;;;;;;6247393;23;20004;-88
2021/12/15 20:53:55;;;;;;;19.88;10.57;;;;;;;;;;6247256;23;20334;-85
2021/12/15 20:56:21;;;;;;;16.67;10.75;;;;;;;;;;6220140;23;20011;-82
2021/12/15 20:58:47;;;;;;;16.30;10.73;;;;;;;;;;6247077;23;20035;-88
2021/12/15 21:01:15;;;;;;;15.48;10.45;;;;;;;;;;6247394;23;20008;-80
2021/12/15 21:03:42;;;;;;;23.85;10.43;;;;;;;;;;6220164;23;20379;-82
2021/12/15 21:06:08;;;;;;;14.50;10.27;;;;;;;;;;6246873;23;20054;-85
2021/12/15 21:08:34;;;;;;;15.60;10.70;;;;;;;;;;6246710;23;20008;-86
2021/12/15 21:11:07;;;;;;;16.80;10.50;;;;;;;;;;6246698;23;20439;-93
2021/12/15 21:13:35;;;;;;;13.57;9.48;;;;;;;;;;6246633;23;20427;-87
2021/12/15 21:16:00;;;;;;;18.52;10.48;;;;;;;;;;6246145;23;20085;-85
2021/12/15 21:18:26;;;;;;;13.85;10.10;;;;;;;;;;6244965;23;20012;-87
2021/12/15 21:20:54;;;;;;;14.43;11.13;;;;;;;;;;6246457;23;20004;-86
2021/12/15 21:23:20;;;;;;;17.15;11.05;;;;;;;;;;6246341;23;20007;-80
2021/12/15 21:25:51;;;;;;;15.68;11.02;;;;;;;;;;6246528;23;20431;-84
2021/12/15 21:28:21;;;;;;;14.40;10.55;;;;;;;;;;6246459;23;20327;-84
2021/12/15 21:30:47;;;;;;;16.45;11.35;;;;;;;;;;6246352;23;20489;-87
2021/12/15 21:33:13;;;;;;;17.90;11.32;;;;;;;;;;6246608;23;20430;-85
2021/12/15 21:35:40;;;;;;;15.20;11.00;;;;;;;;;;6219637;23;20008;-87
2021/12/15 21:38:06;;;;;;;15.18;10.57;;;;;;;;;;6246354;23;20419;-88
2021/12/15 21:40:34;;;;;;;14.85;10.75;;;;;;;;;;6246499;23;20007;-87
2021/12/15 21:43:01;;;;;;;18.05;11.77;;;;;;;;;;6246529;23;20439;-86
2021/12/15 21:45:30;;;;;;;13.82;9.80;;;;;;;;;;6246081;23;20004;-86
2021/12/15 21:47:57;;;;;;;14.53;8.90;;;;;;;;;;6246192;23;20367;-88
2021/12/15 21:50:24;;;;;;;16.83;10.27;;;;;;;;;;6246418;23;20006;-86
2021/12/15 21:52:50;;;;;;;16.13;10.02;;;;;;;;;;6246077;23;20432;-87
2021/12/15 21:55:27;;;;;;;14.85;9.52;;;;;;;;;;6245822;23;20003;-86
2021/12/15 21:57:54;;;;;;;12.30;8.25;;;;;;;;;;6246035;23;20033;-86
2021/12/15 22:00:22;;;;;;;13.55;8.88;;;;;;;;;;6246498;23;20004;-87
2021/12/15 22:02:48;;;;;;;14.80;9.07;;;;;;;;;;6246318;23;20054;-86
2021/12/15 22:05:18;;;;;;;13.88;9.18;;;;;;;;;;6246535;23;20046;-86
2021/12/15 22:07:45;;;;;;;14.77;9.70;;;;;;;;;;6246415;23;19997;-87
2021/12/15 22:10:14;;;;;;;13.02;8.80;;;;;;;;;;6246682;23;20011;-85
2021/12/15 22:12:39;;;;;;;13.82;9.68;;;;;;;;;;6246183;23;20003;-86
2021/12/15 22:15:08;;;;;;;14.77;9.23;;;;;;;;;;6246318;23;20004;-86
2021/12/15 22:17:34;;;;;;;14.30;9.65;;;;;;;;;;6245533;23;20024;-87
2021/12/15 22:19:59;;;;;;;12.15;9.32;;;;;;;;;;6219452;23;20012;-84
2021/12/15 22:22:25;;;;;;;18.13;11.07;;;;;;;;;;6246225;23;20008;-85
2021/12/15 22:24:51;;;;;;;16.20;10.70;;;;;;;;;;6219398;23;20389;-84
2021/12/15 22:27:16;;;;;;;17.23;10.70;;;;;;;;;;6246512;23;20058;-87
2021/12/15 22:29:47;;;;;;;15.30;11.23;;;;;;;;;;6246202;23;20000;-88
2021/12/15 22:32:20;;;;;;;14.05;9.95;;;;;;;;;;6246334;23;20032;-87
2021/12/15 22:34:48;;;;;;;15.05;10.23;;;;;;;;;;6246240;23;20008;-88
2021/12/15 22:37:17;;;;;;;20.75;11.55;;;;;;;;;;6246242;23;20004;-87
2021/12/15 22:39:44;;;;;;;15.95;10.85;;;;;;;;;;6219346;23;20462;-86
2021/12/15 22:42:10;;;;;;;16.25;10.80;;;;;;;;;;6246594;23;20004;-85
2021/12/15 22:44:37;;;;;;;16.65;10.38;;;;;;;;;;6246317;23;20000;-86
2021/12/15 22:47:04;;;;;;;15.50;10.32;;;;;;;;;;6246013;23;20008;-81
2021/12/15 22:49:30;;;;;;;14.38;10.70;;;;;;;;;;6246297;23;19992;-87
2021/12/15 22:51:56;;;;;;;14.40;10.73;;;;;;;;;;6246223;23;20010;-85
2021/12/15 22:54:21;;;;;;;13.55;10.48;;;;;;;;;;6246518;23;20071;-86
2021/12/15 22:56:49;;;;;;;14.93;10.60;;;;;;;;;;6246916;23;20078;-87
2021/12/15 22:59:17;;;;;;;14.00;10.63;;;;;;;;;;6248262;23;20319;-84
2021/12/15 23:01:48;;;;;;;18.63;11.10;;;;;;;;;;6247848;23;20073;-83
2021/12/15 23:04:16;;;;;;;13.38;9.52;;;;;;;;;;6247877;23;20000;-87
2021/12/15 23:06:51;;;;;;;15.77;10.00;;;;;;;;;;6247971;23;20007;-87
2021/12/15 23:09:17;;;;;;;12.55;9.05;;;;;;;;;;6248215;23;20011;-87
2021/12/15 23:14:29;;;;;;;11.35;7.45;;;;;;;;;;6247933;23;20030;-86
2021/12/15 23:16:54;;;;;;;13.65;8.88;;;;;;;;;;6247692;23;20008;-87
2021/12/15 23:19:20;;;;;;;14.82;9.30;;;;;;;;;;6247973;23;20419;-85
2021/12/15 23:21:48;;;;;;;13.15;8.50;;;;;;;;;;6248131;23;20004;-84
2021/12/15 23:24:14;;;;;;;14.15;10.02;;;;;;;;;;6247834;23;20304;-86
2021/12/15 23:26:40;;;;;;;14.02;9.93;;;;;;;;;;6247892;23;20015;-84
2021/12/15 23:29:05;;;;;;;11.05;8.13;;;;;;;;;;6247847;23;20000;-86
2021/12/15 23:31:33;;;;;;;13.00;8.80;;;;;;;;;;6221437;23;20004;-87
2021/12/15 23:33:58;;;;;;;11.82;9.48;;;;;;;;;;6247907;23;19996;-85
2021/12/15 23:36:25;;;;;;;14.30;9.68;;;;;;;;;;6247858;23;20077;-88
